createdAt,value
2022-11-01T00:01:07.977Z,16.95
2022-11-01T00:03:34.595Z,16.96
2022-11-01T00:06:01.220Z,16.95
2022-11-01T00:08:27.901Z,16.94
2022-11-01T00:11:04.952Z,16.95
2022-11-01T00:13:31.739Z,16.94
2022-11-01T00:15:58.716Z,16.93
2022-11-01T00:18:25.566Z,16.94
2022-11-01T00:20:52.298Z,16.94
2022-11-01T00:23:19.043Z,16.93
2022-11-01T00:25:45.615Z,16.93
2022-11-01T00:28:12.384Z,16.92
2022-11-01T00:30:41.705Z,16.94
2022-11-01T00:33:08.254Z,16.93
2022-11-01T00:35:36.993Z,16.93
2022-11-01T00:38:04.891Z,16.92
2022-11-01T00:40:31.488Z,16.92
2022-11-01T00:42:58.035Z,16.93
2022-11-01T00:45:24.600Z,16.91
2022-11-01T00:47:51.154Z,16.92
2022-11-01T00:50:17.739Z,16.91
2022-11-01T00:52:44.299Z,16.93
2022-11-01T00:55:10.883Z,16.91
2022-11-01T00:57:37.435Z,16.91
2022-11-01T01:00:05.262Z,16.90
2022-11-01T01:02:31.964Z,16.91
2022-11-01T01:04:58.638Z,16.91
2022-11-01T01:07:25.238Z,16.90
2022-11-01T01:09:51.803Z,16.90
2022-11-01T01:12:18.353Z,16.91
2022-11-01T01:14:44.915Z,16.90
2022-11-01T01:17:11.568Z,16.90
2022-11-01T01:19:38.246Z,16.91
2022-11-01T01:22:04.822Z,16.90
2022-11-01T01:24:32.080Z,16.90
2022-11-01T01:26:58.656Z,16.90
2022-11-01T01:29:25.466Z,16.89
2022-11-01T01:31:52.248Z,16.91
2022-11-01T01:34:19.188Z,16.88
2022-11-01T01:36:46.798Z,16.89
2022-11-01T01:39:13.398Z,16.88
2022-11-01T01:41:58.377Z,16.89
2022-11-01T01:44:47.398Z,16.88
2022-11-01T01:47:35.165Z,16.87
2022-11-01T01:50:07.755Z,16.87
2022-11-01T01:53:11.492Z,16.88
2022-11-01T01:55:46.079Z,16.88
2022-11-01T01:58:13.944Z,16.87
2022-11-01T02:00:41.015Z,16.87
2022-11-01T02:03:08.000Z,16.88
2022-11-01T02:06:08.379Z,16.87
2022-11-01T02:08:35.693Z,16.87
2022-11-01T02:11:04.275Z,16.87
2022-11-01T02:13:31.563Z,16.86
2022-11-01T02:16:33.272Z,16.85
2022-11-01T02:19:12.019Z,16.86
2022-11-01T02:22:00.376Z,16.87
2022-11-01T02:24:42.986Z,16.85
2022-11-01T02:27:32.820Z,16.86
2022-11-01T02:30:21.289Z,16.84
2022-11-01T02:33:12.593Z,16.85
2022-11-01T02:35:54.605Z,16.85
2022-11-01T02:38:40.472Z,16.85
2022-11-01T02:41:13.292Z,16.84
2022-11-01T02:43:52.276Z,16.85
2022-11-01T02:46:38.545Z,16.85
2022-11-01T02:49:05.691Z,16.84
2022-11-01T02:51:33.238Z,16.84
2022-11-01T02:54:15.088Z,16.84
2022-11-01T02:56:42.527Z,16.83
2022-11-01T02:59:16.531Z,16.83
2022-11-01T03:01:45.784Z,16.84
2022-11-01T03:04:12.390Z,16.85
2022-11-01T03:06:46.867Z,16.84
2022-11-01T03:09:14.190Z,16.84
2022-11-01T03:12:02.227Z,16.84
2022-11-01T03:14:57.040Z,16.83
2022-11-01T03:17:32.848Z,16.83
2022-11-01T03:20:09.028Z,16.82
2022-11-01T03:22:44.047Z,16.82
2022-11-01T03:25:36.800Z,16.82
2022-11-01T03:28:16.082Z,16.81
2022-11-01T03:30:46.574Z,16.82
2022-11-01T03:33:14.494Z,16.82
2022-11-01T03:35:44.301Z,16.81
2022-11-01T03:38:14.085Z,16.81
2022-11-01T03:40:43.137Z,16.80
2022-11-01T03:43:11.607Z,16.81
2022-11-01T03:45:39.450Z,16.80
2022-11-01T03:48:06.868Z,16.80
2022-11-01T03:50:34.154Z,16.79
2022-11-01T03:53:00.803Z,16.80
2022-11-01T03:55:27.366Z,16.80
2022-11-01T03:57:58.744Z,16.80
2022-11-01T04:00:31.120Z,16.79
2022-11-01T04:02:58.931Z,16.79
2022-11-01T04:05:27.949Z,16.77
2022-11-01T04:07:54.865Z,16.79
2022-11-01T04:10:22.695Z,16.79
2022-11-01T04:12:50.212Z,16.80
2022-11-01T04:15:36.255Z,16.78
2022-11-01T04:18:30.180Z,16.80
2022-11-01T04:20:56.883Z,16.78
2022-11-01T04:23:23.437Z,16.79
2022-11-01T04:25:50.366Z,16.78
2022-11-01T04:28:17.191Z,16.78
2022-11-01T04:30:43.972Z,16.78
2022-11-01T04:33:10.679Z,16.77
2022-11-01T04:35:38.158Z,16.77
2022-11-01T04:38:06.198Z,16.77
2022-11-01T04:40:34.382Z,16.77
2022-11-01T04:43:00.991Z,16.76
2022-11-01T04:45:27.749Z,16.77
2022-11-01T04:48:13.924Z,16.77
2022-11-01T04:50:41.722Z,16.77
2022-11-01T04:53:09.216Z,16.77
2022-11-01T04:55:35.810Z,16.75
2022-11-01T04:58:02.489Z,16.76
2022-11-01T05:00:29.032Z,16.76
2022-11-01T05:03:06.600Z,16.75
2022-11-01T05:05:34.117Z,16.75
2022-11-01T05:10:35.364Z,16.74
2022-11-01T05:13:02.543Z,16.74
2022-11-01T05:15:29.471Z,16.73
2022-11-01T05:17:56.563Z,16.74
2022-11-01T05:20:23.236Z,16.74
2022-11-01T05:22:49.789Z,16.72
2022-11-01T05:25:17.989Z,16.73
2022-11-01T05:27:44.644Z,16.74
2022-11-01T05:30:11.871Z,16.74
2022-11-01T05:32:38.455Z,16.72
2022-11-01T05:35:06.208Z,16.71
2022-11-01T05:37:32.823Z,16.73
2022-11-01T05:39:59.365Z,16.72
2022-11-01T05:42:25.964Z,16.73
2022-11-01T05:44:52.601Z,16.72
2022-11-01T05:47:19.158Z,16.73
2022-11-01T05:49:45.714Z,16.73
2022-11-01T05:52:12.263Z,16.70
2022-11-01T05:54:38.835Z,16.71
2022-11-01T05:57:05.954Z,16.73
2022-11-01T05:59:33.624Z,16.70
2022-11-01T06:02:00.355Z,16.70
2022-11-01T06:04:26.944Z,16.70
2022-11-01T06:06:53.518Z,16.72
2022-11-01T06:09:20.073Z,16.72
2022-11-01T06:11:46.621Z,16.72
2022-11-01T06:14:13.191Z,16.72
2022-11-01T06:16:39.810Z,16.71
2022-11-01T06:19:06.353Z,16.72
2022-11-01T06:21:32.906Z,16.71
2022-11-01T06:23:59.506Z,16.71
2022-11-01T06:26:26.132Z,16.70
2022-11-01T06:28:52.712Z,16.69
2022-11-01T06:31:19.677Z,16.70
2022-11-01T06:33:49.184Z,16.71
2022-11-01T06:36:15.778Z,16.69
2022-11-01T06:38:42.334Z,16.70
2022-11-01T06:41:09.095Z,16.70
2022-11-01T06:43:35.635Z,16.70
2022-11-01T06:46:02.258Z,16.70
2022-11-01T06:48:29.070Z,16.69
2022-11-01T06:50:55.941Z,16.70
2022-11-01T06:53:25.816Z,16.69
2022-11-01T06:55:52.383Z,16.71
2022-11-01T06:58:19.198Z,16.71
2022-11-01T07:00:45.837Z,16.71
2022-11-01T07:03:13.789Z,16.71
2022-11-01T07:05:41.221Z,16.71
2022-11-01T07:08:12.960Z,16.70
2022-11-01T07:10:41.352Z,16.70
2022-11-01T07:13:10.380Z,16.69
2022-11-01T07:15:37.125Z,16.71
2022-11-01T07:18:05.397Z,16.72
2022-11-01T07:20:36.472Z,16.71
2022-11-01T07:23:05.378Z,16.71
2022-11-01T07:25:32.956Z,16.72
2022-11-01T07:27:59.739Z,16.71
2022-11-01T07:30:26.645Z,16.71
2022-11-01T07:32:59.681Z,16.69
2022-11-01T07:35:27.292Z,16.70
2022-11-01T07:37:57.132Z,16.69
2022-11-01T07:40:27.675Z,16.72
2022-11-01T07:42:59.605Z,16.71
2022-11-01T07:45:27.742Z,16.72
2022-11-01T07:48:02.552Z,16.72
2022-11-01T07:50:30.273Z,16.72
2022-11-01T07:53:07.724Z,16.71
2022-11-01T07:55:35.258Z,16.72
2022-11-01T07:58:02.693Z,16.71
2022-11-01T08:00:29.710Z,16.71
2022-11-01T08:03:07.058Z,16.69
2022-11-01T08:05:33.655Z,16.72
2022-11-01T08:08:01.161Z,16.70
2022-11-01T08:10:28.812Z,16.70
2022-11-01T08:13:17.391Z,16.73
2022-11-01T08:15:45.288Z,16.72
2022-11-01T08:18:12.244Z,16.72
2022-11-01T08:20:38.939Z,16.72
2022-11-01T08:23:06.034Z,16.73
2022-11-01T08:25:33.246Z,16.72
2022-11-01T08:28:05.171Z,16.72
2022-11-01T08:30:32.062Z,16.73
2022-11-01T08:33:02.649Z,16.72
2022-11-01T08:35:30.142Z,16.72
2022-11-01T08:37:58.981Z,16.72
2022-11-01T08:40:26.297Z,16.74
2022-11-01T08:42:52.895Z,16.74
2022-11-01T08:45:19.488Z,16.73
2022-11-01T08:47:46.242Z,16.75
2022-11-01T08:50:16.094Z,16.74
2022-11-01T08:52:42.662Z,16.75
2022-11-01T08:55:10.957Z,16.75
2022-11-01T08:57:37.718Z,16.75
2022-11-01T09:00:07.820Z,16.76
2022-11-01T09:02:34.646Z,16.75
2022-11-01T09:05:05.062Z,16.74
2022-11-01T09:07:32.060Z,16.74
2022-11-01T09:09:58.606Z,16.75
2022-11-01T09:12:25.227Z,16.76
2022-11-01T09:14:52.565Z,16.75
2022-11-01T09:17:19.101Z,16.75
2022-11-01T09:19:45.648Z,16.77
2022-11-01T09:22:12.217Z,16.76
2022-11-01T09:24:38.798Z,16.78
2022-11-01T09:27:07.524Z,16.77
2022-11-01T09:32:06.759Z,16.75
2022-11-01T09:34:33.826Z,16.77
2022-11-01T09:37:00.446Z,16.77
2022-11-01T09:39:27.624Z,16.77
2022-11-01T09:42:01.936Z,16.76
2022-11-01T09:44:38.669Z,16.78
2022-11-01T09:47:08.547Z,16.76
2022-11-01T09:49:40.156Z,16.76
2022-11-01T09:52:07.550Z,16.77
2022-11-01T09:54:34.315Z,16.77
2022-11-01T09:57:03.776Z,16.77
2022-11-01T09:59:37.173Z,16.78
2022-11-01T10:02:30.576Z,16.79
2022-11-01T10:05:03.162Z,16.80
2022-11-01T10:07:53.636Z,16.79
2022-11-01T10:10:28.292Z,16.77
2022-11-01T10:13:28.066Z,16.78
2022-11-01T10:16:09.625Z,16.78
2022-11-01T10:18:58.203Z,16.77
2022-11-01T10:21:29.649Z,16.76
2022-11-01T10:23:58.296Z,16.79
2022-11-01T10:26:30.093Z,16.80
2022-11-01T10:29:03.333Z,16.80
2022-11-01T10:31:30.073Z,16.79
2022-11-01T10:34:09.101Z,16.79
2022-11-01T10:42:18.040Z,16.78
2022-11-01T10:44:48.466Z,16.80
2022-11-01T10:47:19.058Z,16.80
2022-11-01T10:50:04.935Z,16.79
2022-11-01T10:53:02.761Z,16.81
2022-11-01T10:55:50.528Z,16.82
2022-11-01T10:58:47.667Z,16.82
2022-11-01T11:01:19.582Z,16.85
2022-11-01T11:03:47.103Z,16.88
2022-11-01T11:06:15.431Z,16.89
2022-11-01T11:08:45.101Z,16.89
2022-11-01T11:11:14.812Z,16.88
2022-11-01T11:13:47.063Z,16.89
2022-11-01T11:16:31.170Z,16.90
2022-11-01T11:19:22.055Z,16.91
2022-11-01T11:21:51.601Z,16.92
2022-11-01T11:24:38.114Z,16.91
2022-11-01T11:27:12.006Z,16.92
2022-11-01T11:29:49.149Z,16.92
2022-11-01T11:32:19.114Z,16.91
2022-11-01T11:34:52.834Z,16.91
2022-11-01T11:37:22.715Z,16.92
2022-11-01T11:40:24.444Z,16.92
2022-11-01T11:42:53.193Z,16.93
2022-11-01T11:45:24.374Z,16.94
2022-11-01T11:47:51.559Z,16.95
2022-11-01T11:50:21.121Z,16.95
2022-11-01T11:52:49.346Z,16.96
2022-11-01T11:55:55.015Z,16.95
2022-11-01T11:58:54.050Z,16.94
2022-11-01T12:01:23.652Z,16.93
2022-11-01T12:03:59.874Z,16.91
2022-11-01T12:06:27.708Z,16.91
2022-11-01T12:08:59.443Z,16.89
2022-11-01T12:11:41.627Z,16.89
2022-11-01T12:14:23.598Z,16.88
2022-11-01T12:16:50.386Z,16.87
2022-11-01T12:19:26.065Z,16.86
2022-11-01T12:21:53.801Z,16.87
2022-11-01T12:24:42.081Z,16.86
2022-11-01T12:27:18.362Z,16.85
2022-11-01T12:30:00.902Z,16.86
2022-11-01T12:32:30.416Z,16.86
2022-11-01T12:34:59.971Z,16.87
2022-11-01T12:37:32.787Z,16.88
2022-11-01T12:40:05.345Z,16.88
2022-11-01T12:42:51.991Z,16.89
2022-11-01T12:45:28.994Z,16.89
2022-11-01T12:48:02.736Z,16.87
2022-11-01T12:50:37.270Z,16.87
2022-11-01T12:53:16.129Z,16.87
2022-11-01T12:55:43.006Z,16.85
2022-11-01T12:58:15.743Z,16.85
2022-11-01T13:01:18.211Z,16.86
2022-11-01T13:04:07.793Z,16.85
2022-11-01T13:06:37.049Z,16.82
2022-11-01T13:09:22.232Z,16.82
2022-11-01T13:12:19.246Z,16.82
2022-11-01T13:14:58.225Z,16.82
2022-11-01T13:17:53.963Z,16.83
2022-11-01T13:20:29.313Z,16.84
2022-11-01T13:23:12.323Z,16.86
2022-11-01T13:25:42.946Z,16.87
2022-11-01T13:28:15.524Z,16.86
2022-11-01T13:30:56.506Z,16.86
2022-11-01T13:33:43.416Z,16.87
2022-11-01T13:36:42.650Z,16.87
2022-11-01T13:39:27.197Z,16.92
2022-11-01T13:42:13.617Z,16.92
2022-11-01T13:44:47.939Z,16.92
2022-11-01T13:47:23.685Z,16.93
2022-11-01T13:50:15.172Z,17.03
2022-11-01T13:52:47.271Z,17.13
2022-11-01T13:55:21.867Z,17.17
2022-11-01T13:57:48.671Z,17.14
2022-11-01T14:00:39.764Z,17.10
2022-11-01T14:03:35.595Z,17.04
2022-11-01T14:06:09.265Z,17.04
2022-11-01T14:08:41.538Z,17.01
2022-11-01T14:11:11.354Z,17.00
2022-11-01T14:13:45.738Z,16.99
2022-11-01T14:16:15.447Z,16.97
2022-11-01T14:19:08.530Z,16.98
2022-11-01T14:21:41.092Z,16.96
2022-11-01T14:24:16.897Z,16.96
2022-11-01T14:27:19.017Z,16.95
2022-11-01T14:29:50.380Z,16.94
2022-11-01T14:32:18.109Z,16.94
2022-11-01T14:34:45.816Z,16.93
2022-11-01T14:37:21.610Z,16.94
2022-11-01T14:40:20.324Z,16.92
2022-11-01T14:42:48.422Z,16.92
2022-11-01T14:45:29.681Z,16.92
2022-11-01T14:47:59.563Z,16.92
2022-11-01T14:50:31.341Z,16.92
2022-11-01T14:53:23.759Z,16.90
2022-11-01T14:56:06.358Z,16.91
2022-11-01T14:58:32.941Z,16.92
2022-11-01T15:01:05.148Z,16.89
2022-11-01T15:03:33.289Z,16.90
2022-11-01T15:05:59.936Z,16.90
2022-11-01T15:08:39.900Z,16.90
2022-11-01T15:11:07.199Z,16.90
2022-11-01T15:13:39.149Z,16.89
2022-11-01T15:16:24.359Z,16.88
2022-11-01T15:18:54.578Z,16.88
2022-11-01T15:21:27.079Z,16.88
2022-11-01T15:23:57.616Z,16.87
2022-11-01T15:26:26.232Z,16.87
2022-11-01T15:28:55.356Z,16.86
2022-11-01T15:31:22.068Z,16.87
2022-11-01T15:34:03.493Z,16.85
2022-11-01T15:36:37.166Z,16.86
2022-11-01T15:39:24.605Z,16.85
2022-11-01T15:41:52.189Z,16.85
2022-11-01T15:44:21.841Z,16.86
2022-11-01T15:46:49.585Z,16.85
2022-11-01T15:49:19.502Z,16.88
2022-11-01T15:51:50.449Z,16.86
2022-11-01T15:54:32.350Z,16.87
2022-11-01T15:57:02.245Z,16.85
2022-11-01T15:59:42.574Z,16.86
2022-11-01T16:02:17.766Z,16.86
2022-11-01T16:04:46.625Z,16.84
2022-11-01T16:07:16.177Z,16.84
2022-11-01T16:09:45.946Z,16.84
2022-11-01T16:12:20.061Z,16.84
2022-11-01T16:15:25.299Z,16.84
2022-11-01T16:17:55.773Z,16.84
2022-11-01T16:20:34.633Z,16.83
2022-11-01T16:23:08.666Z,16.84
2022-11-01T16:25:37.594Z,16.84
2022-11-01T16:28:28.525Z,16.82
2022-11-01T16:30:56.428Z,16.84
2022-11-01T16:33:30.206Z,16.83
2022-11-01T16:36:00.316Z,16.84
2022-11-01T16:38:32.849Z,16.84
2022-11-01T16:41:01.000Z,16.84
2022-11-01T16:43:30.647Z,16.83
2022-11-01T16:45:57.463Z,16.82
2022-11-01T16:48:26.407Z,16.81
2022-11-01T16:50:54.551Z,16.83
2022-11-01T16:53:22.630Z,16.83
2022-11-01T16:55:49.211Z,16.82
2022-11-01T16:58:18.101Z,16.80
2022-11-01T17:00:52.503Z,16.81
2022-11-01T17:03:19.447Z,16.82
2022-11-01T17:05:46.139Z,16.80
2022-11-01T17:08:12.772Z,16.80
2022-11-01T17:10:39.366Z,16.79
2022-11-01T17:13:07.904Z,16.81
2022-11-01T17:15:39.782Z,16.81
2022-11-01T17:18:12.486Z,16.81
2022-11-01T17:20:40.526Z,16.81
2022-11-01T17:23:13.153Z,16.80
2022-11-01T17:25:40.135Z,16.82
2022-11-01T17:28:06.857Z,16.79
2022-11-01T17:30:33.503Z,16.82
2022-11-01T17:33:00.092Z,16.81
2022-11-01T17:35:26.942Z,16.81
2022-11-01T17:37:54.991Z,16.81
2022-11-01T17:40:25.144Z,16.80
2022-11-01T17:42:52.099Z,16.80
2022-11-01T17:45:19.081Z,16.80
2022-11-01T17:47:46.322Z,16.79
2022-11-01T17:50:15.273Z,16.79
2022-11-01T17:52:42.496Z,16.80
2022-11-01T17:55:09.950Z,16.78
2022-11-01T17:57:36.581Z,16.79
2022-11-01T18:00:04.317Z,16.80
2022-11-01T18:02:32.265Z,16.78
2022-11-01T18:04:58.817Z,16.76
2022-11-01T18:07:28.317Z,16.77
2022-11-01T18:09:55.169Z,16.77
2022-11-01T18:12:32.243Z,16.76
2022-11-01T18:15:22.183Z,16.77
2022-11-01T18:18:16.181Z,16.77
2022-11-01T18:20:58.685Z,16.77
2022-11-01T18:23:25.647Z,16.76
2022-11-01T18:25:52.232Z,16.76
2022-11-01T18:28:24.053Z,16.77
2022-11-01T18:31:08.952Z,16.76
2022-11-01T18:33:41.645Z,16.75
2022-11-01T18:36:13.859Z,16.74
2022-11-01T18:38:49.303Z,16.75
2022-11-01T18:41:19.658Z,16.76
2022-11-01T18:43:46.375Z,16.75
2022-11-01T18:46:26.886Z,16.75
2022-11-01T18:49:10.229Z,16.75
2022-11-01T18:51:38.543Z,16.76
2022-11-01T18:54:11.361Z,16.78
2022-11-01T18:56:39.073Z,16.77
2022-11-01T18:59:13.388Z,16.79
2022-11-01T19:01:40.940Z,16.79
2022-11-01T19:04:15.879Z,16.79
2022-11-01T19:06:42.572Z,16.81
2022-11-01T19:09:30.313Z,16.80
2022-11-01T19:12:02.732Z,16.81
2022-11-01T19:14:30.778Z,16.81
2022-11-01T19:16:57.497Z,16.81
2022-11-01T19:19:24.162Z,16.80
2022-11-01T19:21:50.768Z,16.81
2022-11-01T19:24:35.002Z,16.80
2022-11-01T19:27:02.662Z,16.79
2022-11-01T19:29:32.238Z,16.78
2022-11-01T19:32:00.486Z,16.79
2022-11-01T19:34:35.027Z,16.77
2022-11-01T19:37:06.309Z,16.79
2022-11-01T19:39:40.680Z,16.77
2022-11-01T19:42:19.210Z,16.78
2022-11-01T19:44:46.233Z,16.76
2022-11-01T19:47:30.215Z,16.77
2022-11-01T19:49:56.802Z,16.76
2022-11-01T19:52:36.538Z,16.75
2022-11-01T19:55:26.146Z,16.76
2022-11-01T19:57:52.700Z,16.74
2022-11-01T20:00:21.169Z,16.74
2022-11-01T20:02:49.215Z,16.75
2022-11-01T20:05:29.004Z,16.75
2022-11-01T20:08:06.143Z,16.75
2022-11-01T20:10:32.953Z,16.73
2022-11-01T20:12:59.542Z,16.74
2022-11-01T20:15:26.108Z,16.74
2022-11-01T20:17:52.673Z,16.73
2022-11-01T20:20:19.303Z,16.74
2022-11-01T20:22:55.020Z,16.73
2022-11-01T20:25:33.279Z,16.74
2022-11-01T20:27:59.913Z,16.71
2022-11-01T20:30:26.624Z,16.72
2022-11-01T20:32:53.196Z,16.72
2022-11-01T20:35:19.931Z,16.71
2022-11-01T20:37:46.509Z,16.73
2022-11-01T20:40:13.232Z,16.72
2022-11-01T20:42:39.805Z,16.71
2022-11-01T20:45:06.633Z,16.72
2022-11-01T20:47:33.197Z,16.72
2022-11-01T20:50:04.645Z,16.72
2022-11-01T20:52:39.778Z,16.71
2022-11-01T20:55:09.332Z,16.72
2022-11-01T20:57:35.887Z,16.72
2022-11-01T21:00:04.059Z,16.72
2022-11-01T21:02:30.639Z,16.72
2022-11-01T21:05:02.596Z,16.72
2022-11-01T21:07:30.966Z,16.71
2022-11-01T21:09:57.624Z,16.72
2022-11-01T21:12:42.168Z,16.71
2022-11-01T21:15:30.529Z,16.71
2022-11-01T21:18:12.205Z,16.70
2022-11-01T21:20:40.656Z,16.71
2022-11-01T21:23:25.999Z,16.70
2022-11-01T21:25:54.140Z,16.71
2022-11-01T21:28:32.909Z,16.70
2022-11-01T21:31:14.666Z,16.70
2022-11-01T21:33:43.138Z,16.70
2022-11-01T21:36:18.709Z,16.70
2022-11-01T21:38:55.459Z,16.71
2022-11-01T21:41:35.188Z,16.72
2022-11-01T21:44:39.860Z,16.72
2022-11-01T21:47:09.124Z,16.71
2022-11-01T21:49:36.641Z,16.70
2022-11-01T21:52:05.563Z,16.70
2022-11-01T21:54:35.209Z,16.69
2022-11-01T21:57:02.911Z,16.70
2022-11-01T21:59:29.691Z,16.70
2022-11-01T22:01:57.054Z,16.70
2022-11-01T22:04:28.528Z,16.70
2022-11-01T22:06:59.084Z,16.68
2022-11-01T22:09:26.350Z,16.70
2022-11-01T22:11:53.224Z,16.69
2022-11-01T22:14:19.928Z,16.68
2022-11-01T22:16:46.500Z,16.68
2022-11-01T22:19:13.184Z,16.70
2022-11-01T22:21:39.940Z,16.70
2022-11-01T22:24:06.851Z,16.70
2022-11-01T22:26:33.549Z,16.69
2022-11-01T22:29:00.161Z,16.70
2022-11-01T22:31:27.025Z,16.69
2022-11-01T22:33:54.989Z,16.69
2022-11-01T22:36:29.876Z,16.69
2022-11-01T22:38:58.169Z,16.70
2022-11-01T22:41:33.075Z,16.71
2022-11-01T22:44:11.118Z,16.66
2022-11-01T22:46:43.632Z,16.69
2022-11-01T22:49:22.780Z,16.69
2022-11-01T22:52:03.862Z,16.68
2022-11-01T22:54:47.622Z,16.67
2022-11-01T22:57:16.794Z,16.67
2022-11-01T22:59:50.733Z,16.66
2022-11-01T23:02:36.131Z,16.66
2022-11-01T23:05:24.865Z,16.66
2022-11-01T23:07:56.341Z,16.65
2022-11-01T23:10:33.710Z,16.65
2022-11-01T23:13:27.151Z,16.65
2022-11-01T23:15:59.190Z,16.64
2022-11-01T23:18:28.905Z,16.65
2022-11-01T23:21:00.466Z,16.63
2022-11-01T23:23:27.124Z,16.64
2022-11-01T23:25:54.636Z,16.63
2022-11-01T23:28:21.931Z,16.63
2022-11-01T23:30:49.258Z,16.64
2022-11-01T23:33:17.428Z,16.62
2022-11-01T23:35:51.995Z,16.63
2022-11-01T23:38:21.779Z,16.64
2022-11-01T23:40:49.837Z,16.64
2022-11-01T23:43:24.984Z,16.64
2022-11-01T23:45:52.284Z,16.64
2022-11-01T23:48:20.737Z,16.62
2022-11-01T23:50:47.801Z,16.64
2022-11-01T23:53:15.186Z,16.65
2022-11-01T23:55:45.420Z,16.66
2022-11-01T23:58:16.744Z,16.66
